createdAt,value
2022-10-22T00:00:48.103Z,14.78
2022-10-22T00:03:15.591Z,14.78
2022-10-22T00:05:43.762Z,14.76
2022-10-22T00:08:12.504Z,14.74
2022-10-22T00:10:40.046Z,14.74
2022-10-22T00:13:07.743Z,14.73
2022-10-22T00:15:35.202Z,14.74
2022-10-22T00:18:02.685Z,14.73
2022-10-22T00:20:30.177Z,14.71
2022-10-22T00:22:57.734Z,14.70
2022-10-22T00:25:26.505Z,14.68
2022-10-22T00:27:53.967Z,14.67
2022-10-22T00:30:21.643Z,14.66
2022-10-22T00:32:49.245Z,14.67
2022-10-22T00:35:17.276Z,14.64
2022-10-22T00:37:44.930Z,14.65
2022-10-22T00:40:13.497Z,14.64
2022-10-22T00:42:42.786Z,14.63
2022-10-22T00:45:23.527Z,14.62
2022-10-22T00:47:56.813Z,14.61
2022-10-22T00:50:28.869Z,14.60
2022-10-22T00:52:58.371Z,14.59
2022-10-22T00:55:27.808Z,14.59
2022-10-22T00:57:58.953Z,14.56
2022-10-22T01:00:27.150Z,14.57
2022-10-22T01:02:55.739Z,14.57
2022-10-22T01:05:24.030Z,14.57
2022-10-22T01:07:54.083Z,14.56
2022-10-22T01:10:44.834Z,14.54
2022-10-22T01:13:24.096Z,14.53
2022-10-22T01:16:00.332Z,14.51
2022-10-22T01:18:36.830Z,14.51
2022-10-22T01:21:15.217Z,14.49
2022-10-22T01:24:05.840Z,14.48
2022-10-22T01:26:44.981Z,14.47
2022-10-22T01:29:19.925Z,14.46
2022-10-22T01:31:52.632Z,14.45
2022-10-22T01:34:21.429Z,14.45
2022-10-22T01:36:52.305Z,14.45
2022-10-22T01:39:21.307Z,14.44
2022-10-22T01:41:48.980Z,14.43
2022-10-22T01:44:29.460Z,14.43
2022-10-22T01:47:08.630Z,14.41
2022-10-22T01:50:05.489Z,14.42
2022-10-22T01:52:50.282Z,14.42
2022-10-22T01:55:27.040Z,14.42
2022-10-22T01:58:08.007Z,14.41
2022-10-22T02:00:39.488Z,14.43
2022-10-22T02:03:17.419Z,14.44
2022-10-22T02:05:51.577Z,14.43
2022-10-22T02:08:21.826Z,14.44
2022-10-22T02:10:51.567Z,14.44
2022-10-22T02:13:24.183Z,14.44
2022-10-22T02:15:54.324Z,14.44
2022-10-22T02:18:26.905Z,14.44
2022-10-22T02:20:54.974Z,14.44
2022-10-22T02:23:23.325Z,14.45
2022-10-22T02:25:56.868Z,14.43
2022-10-22T02:28:28.301Z,14.44
2022-10-22T02:31:07.285Z,14.43
2022-10-22T02:33:39.606Z,14.44
2022-10-22T02:36:09.315Z,14.43
2022-10-22T02:38:37.981Z,14.44
2022-10-22T02:41:06.041Z,14.43
2022-10-22T02:43:41.401Z,14.41
2022-10-22T02:46:10.939Z,14.38
2022-10-22T02:48:38.859Z,14.37
2022-10-22T02:51:06.948Z,14.35
2022-10-22T02:53:34.654Z,14.35
2022-10-22T02:56:02.392Z,14.36
2022-10-22T02:58:30.124Z,14.34
2022-10-22T03:00:57.817Z,14.33
2022-10-22T03:03:27.146Z,14.30
2022-10-22T03:05:54.782Z,14.29
2022-10-22T03:08:22.539Z,14.30
2022-10-22T03:10:50.326Z,14.30
2022-10-22T03:13:18.057Z,14.30
2022-10-22T03:15:45.822Z,14.31
2022-10-22T03:18:13.900Z,14.30
2022-10-22T03:20:42.993Z,14.31
2022-10-22T03:23:11.175Z,14.30
2022-10-22T03:25:44.045Z,14.30
2022-10-22T03:28:14.471Z,14.30
2022-10-22T03:30:42.164Z,14.30
2022-10-22T03:33:09.788Z,14.30
2022-10-22T03:35:43.203Z,14.29
2022-10-22T03:38:13.079Z,14.30
2022-10-22T03:40:41.583Z,14.27
2022-10-22T03:43:09.647Z,14.27
2022-10-22T03:48:06.961Z,14.24
2022-10-22T03:50:34.801Z,14.22
2022-10-22T03:53:02.675Z,14.22
2022-10-22T03:55:31.766Z,14.21
2022-10-22T03:57:59.464Z,14.21
2022-10-22T04:00:27.198Z,14.22
2022-10-22T04:02:54.942Z,14.23
2022-10-22T04:05:22.715Z,14.22
2022-10-22T04:07:50.490Z,14.19
2022-10-22T04:10:18.410Z,14.18
2022-10-22T04:12:49.707Z,14.15
2022-10-22T04:15:17.946Z,14.15
2022-10-22T04:17:45.598Z,14.15
2022-10-22T04:20:13.335Z,14.14
2022-10-22T04:22:40.920Z,14.14
2022-10-22T04:25:09.089Z,14.13
2022-10-22T04:27:37.286Z,14.09
2022-10-22T04:30:07.743Z,14.06
2022-10-22T04:32:35.596Z,14.04
2022-10-22T04:35:03.426Z,14.02
2022-10-22T04:37:32.985Z,14.01
2022-10-22T04:40:00.761Z,14.00
2022-10-22T04:42:28.397Z,14.02
2022-10-22T04:44:56.074Z,14.03
2022-10-22T04:47:25.146Z,14.03
2022-10-22T04:49:52.868Z,14.06
2022-10-22T04:52:20.716Z,14.07
2022-10-22T04:54:48.601Z,14.04
2022-10-22T04:57:16.370Z,14.06
2022-10-22T04:59:44.085Z,14.03
2022-10-22T05:08:32.629Z,14.06
2022-10-22T05:11:06.245Z,14.06
2022-10-22T05:13:48.587Z,14.06
2022-10-22T05:16:16.918Z,14.06
2022-10-22T05:18:45.502Z,14.05
2022-10-22T05:21:16.244Z,14.04
2022-10-22T05:23:46.289Z,14.04
2022-10-22T05:26:16.103Z,14.02
2022-10-22T05:28:44.582Z,14.01
2022-10-22T05:31:14.713Z,14.00
2022-10-22T05:33:43.755Z,13.97
2022-10-22T05:36:14.567Z,13.95
2022-10-22T05:38:42.302Z,13.94
2022-10-22T05:41:13.529Z,13.92
2022-10-22T05:43:41.193Z,13.91
2022-10-22T05:46:11.887Z,13.90
2022-10-22T05:48:40.188Z,13.89
2022-10-22T05:51:10.270Z,13.87
2022-10-22T05:53:39.696Z,13.87
2022-10-22T05:56:10.873Z,13.87
2022-10-22T05:58:40.599Z,13.83
2022-10-22T06:01:10.104Z,13.82
2022-10-22T06:03:37.962Z,13.85
2022-10-22T06:06:15.268Z,13.83
2022-10-22T06:08:44.998Z,13.85
2022-10-22T06:11:12.789Z,13.84
2022-10-22T06:13:42.195Z,13.83
2022-10-22T06:16:09.701Z,13.86
2022-10-22T06:18:37.729Z,13.86
2022-10-22T06:21:07.399Z,13.86
2022-10-22T06:23:35.313Z,13.88
2022-10-22T06:26:03.459Z,13.89
2022-10-22T06:28:31.859Z,13.88
2022-10-22T06:31:01.816Z,13.88
2022-10-22T06:33:32.576Z,13.88
2022-10-22T06:36:07.573Z,13.86
2022-10-22T06:38:35.730Z,13.85
2022-10-22T06:41:04.795Z,13.85
2022-10-22T06:43:32.559Z,13.86
2022-10-22T06:46:09.877Z,13.85
2022-10-22T06:48:46.912Z,13.84
2022-10-22T06:51:17.226Z,13.84
2022-10-22T06:53:44.975Z,13.84
2022-10-22T06:56:34.185Z,13.82
2022-10-22T06:59:08.756Z,13.82
2022-10-22T07:01:38.758Z,13.80
2022-10-22T07:04:07.011Z,13.79
2022-10-22T07:06:35.007Z,13.80
2022-10-22T07:09:03.716Z,13.80
2022-10-22T07:11:38.889Z,13.80
2022-10-22T07:14:06.494Z,13.82
2022-10-22T07:16:34.519Z,13.82
2022-10-22T07:19:05.864Z,13.82
2022-10-22T07:21:36.327Z,13.84
2022-10-22T07:24:03.946Z,13.86
2022-10-22T07:26:32.748Z,13.88
2022-10-22T07:29:02.019Z,13.89
2022-10-22T07:31:29.892Z,13.90
2022-10-22T07:33:57.619Z,13.91
2022-10-22T07:36:26.559Z,13.93
2022-10-22T07:38:57.043Z,13.94
2022-10-22T07:41:25.236Z,13.95
2022-10-22T07:43:53.330Z,13.97
2022-10-22T07:46:21.557Z,14.01
2022-10-22T07:48:51.577Z,14.06
2022-10-22T07:51:19.716Z,14.10
2022-10-22T07:53:48.767Z,14.14
2022-10-22T07:56:17.872Z,14.19
2022-10-22T07:58:45.693Z,14.21
2022-10-22T08:01:13.270Z,14.24
2022-10-22T08:03:40.843Z,14.24
2022-10-22T08:06:08.823Z,14.27
2022-10-22T08:08:36.519Z,14.29
2022-10-22T08:11:05.616Z,14.33
2022-10-22T08:13:33.418Z,14.38
2022-10-22T08:16:02.225Z,14.41
2022-10-22T08:18:33.456Z,14.45
2022-10-22T08:21:07.645Z,14.47
2022-10-22T08:23:35.387Z,14.50
2022-10-22T08:26:06.862Z,14.49
2022-10-22T08:28:38.991Z,14.51
2022-10-22T08:34:05.917Z,14.55
2022-10-22T08:36:34.511Z,14.55
2022-10-22T08:39:08.636Z,14.56
2022-10-22T08:41:45.573Z,14.59
2022-10-22T08:44:47.740Z,14.61
2022-10-22T08:47:28.768Z,14.62
2022-10-22T08:49:57.228Z,14.65
2022-10-22T08:52:24.814Z,14.65
2022-10-22T08:54:54.973Z,14.67
2022-10-22T08:57:45.645Z,14.67
2022-10-22T09:00:25.011Z,14.72
2022-10-22T09:03:03.603Z,14.75
2022-10-22T09:05:41.181Z,14.79
2022-10-22T09:08:11.781Z,14.83
2022-10-22T09:10:44.958Z,14.87
2022-10-22T09:13:16.936Z,14.89
2022-10-22T09:15:47.306Z,14.92
2022-10-22T09:18:31.815Z,14.97
2022-10-22T09:21:05.414Z,15.02
2022-10-22T09:23:39.925Z,15.08
2022-10-22T09:26:15.282Z,15.13
2022-10-22T09:28:44.279Z,15.18
2022-10-22T09:31:15.429Z,15.21
2022-10-22T09:33:51.625Z,15.24
2022-10-22T09:36:23.728Z,15.28
2022-10-22T09:38:53.252Z,15.30
2022-10-22T09:41:29.692Z,15.34
2022-10-22T09:43:57.492Z,15.39
2022-10-22T09:46:32.577Z,15.44
2022-10-22T09:49:05.586Z,15.48
2022-10-22T09:51:51.123Z,15.51
2022-10-22T09:54:22.276Z,15.54
2022-10-22T09:56:54.714Z,15.56
2022-10-22T09:59:29.279Z,15.60
2022-10-22T10:02:19.801Z,15.63
2022-10-22T10:04:56.913Z,15.69
2022-10-22T10:07:26.576Z,15.72
2022-10-22T10:09:55.586Z,15.77
2022-10-22T10:12:36.387Z,15.84
2022-10-22T10:15:18.667Z,15.93
2022-10-22T10:17:56.831Z,15.99
2022-10-22T10:20:35.439Z,16.05
2022-10-22T10:23:09.588Z,16.10
2022-10-22T10:25:43.783Z,16.14
2022-10-22T10:28:22.887Z,16.18
2022-10-22T10:30:58.993Z,16.23
2022-10-22T10:33:36.610Z,16.26
2022-10-22T10:36:11.343Z,16.29
2022-10-22T10:38:48.976Z,16.29
2022-10-22T10:41:30.850Z,16.27
2022-10-22T10:44:15.332Z,16.28
2022-10-22T10:46:51.403Z,16.28
2022-10-22T10:49:25.296Z,16.31
2022-10-22T10:52:02.444Z,16.33
2022-10-22T10:54:43.138Z,16.36
2022-10-22T10:57:20.552Z,16.40
2022-10-22T11:00:01.168Z,16.42
2022-10-22T11:02:49.114Z,16.47
2022-10-22T11:05:29.206Z,16.51
2022-10-22T11:08:01.044Z,16.59
2022-10-22T11:10:32.945Z,16.75
2022-10-22T11:13:08.796Z,16.97
2022-10-22T11:15:41.475Z,17.22
2022-10-22T11:18:16.823Z,17.46
2022-10-22T11:21:04.386Z,17.81
2022-10-22T11:23:39.938Z,17.95
2022-10-22T11:26:14.931Z,17.98
2022-10-22T11:28:46.765Z,17.99
2022-10-22T11:31:16.798Z,18.01
2022-10-22T11:33:54.596Z,18.13
2022-10-22T11:39:05.052Z,18.53
2022-10-22T11:41:35.440Z,18.77
2022-10-22T11:44:11.168Z,19.01
2022-10-22T11:46:47.027Z,19.14
2022-10-22T11:49:23.280Z,19.19
2022-10-22T11:51:53.311Z,19.22
2022-10-22T11:54:42.338Z,19.25
2022-10-22T11:57:19.877Z,19.23
2022-10-22T11:59:51.850Z,19.21
2022-10-22T12:02:26.849Z,19.22
2022-10-22T12:04:56.825Z,19.31
2022-10-22T12:07:36.436Z,19.51
2022-10-22T12:10:07.424Z,19.80
2022-10-22T12:12:40.143Z,20.12
2022-10-22T12:15:25.355Z,20.23
2022-10-22T12:18:16.194Z,20.60
2022-10-22T12:20:44.026Z,21.04
2022-10-22T12:23:15.032Z,21.43
2022-10-22T12:25:43.363Z,21.80
2022-10-22T12:28:14.320Z,22.16
2022-10-22T12:30:42.103Z,22.50
2022-10-22T12:33:22.712Z,22.83
2022-10-22T12:35:55.490Z,23.14
2022-10-22T12:38:25.646Z,23.42
2022-10-22T12:40:57.683Z,23.65
2022-10-22T12:43:29.909Z,23.88
2022-10-22T12:46:00.196Z,24.10
2022-10-22T12:48:31.264Z,24.33
2022-10-22T12:51:02.244Z,24.53
2022-10-22T12:53:35.130Z,24.65
2022-10-22T12:56:05.831Z,24.83
2022-10-22T12:58:39.985Z,25.02
2022-10-22T13:01:08.066Z,25.27
2022-10-22T13:03:38.939Z,25.45
2022-10-22T13:06:24.877Z,25.54
2022-10-22T13:09:14.843Z,25.70
2022-10-22T13:11:49.677Z,25.84
2022-10-22T13:14:22.456Z,25.93
2022-10-22T13:17:12.182Z,26.03
2022-10-22T13:19:46.401Z,26.11
2022-10-22T13:22:30.491Z,26.15
2022-10-22T13:25:01.103Z,26.09
2022-10-22T13:27:29.772Z,25.87
2022-10-22T13:29:58.047Z,25.51
2022-10-22T13:32:31.899Z,25.12
2022-10-22T13:35:01.637Z,24.74
2022-10-22T13:37:33.990Z,24.37
2022-10-22T13:40:04.089Z,24.07
2022-10-22T13:42:33.192Z,23.82
2022-10-22T13:45:00.721Z,23.58
2022-10-22T13:47:30.507Z,23.37
2022-10-22T13:50:01.512Z,23.18
2022-10-22T13:52:35.662Z,22.97
2022-10-22T13:55:14.305Z,22.76
2022-10-22T13:57:41.927Z,22.58
2022-10-22T14:00:13.105Z,22.41
2022-10-22T14:02:41.489Z,22.28
2022-10-22T14:05:11.205Z,22.13
2022-10-22T14:07:40.054Z,21.99
2022-10-22T14:10:17.359Z,21.80
2022-10-22T14:12:49.287Z,21.67
2022-10-22T14:15:21.116Z,21.48
2022-10-22T14:17:52.774Z,21.33
2022-10-22T14:20:23.250Z,21.23
2022-10-22T14:22:52.031Z,21.16
2022-10-22T14:25:22.812Z,21.09
2022-10-22T14:27:50.791Z,21.01
2022-10-22T14:30:25.448Z,20.92
2022-10-22T14:32:53.572Z,20.86
2022-10-22T14:35:23.522Z,20.78
2022-10-22T14:37:51.876Z,20.72
2022-10-22T14:40:21.734Z,20.67
2022-10-22T14:42:49.984Z,20.60
2022-10-22T14:45:21.326Z,20.53
2022-10-22T14:47:49.474Z,20.48
2022-10-22T14:50:18.103Z,20.41
2022-10-22T14:52:46.512Z,20.38
2022-10-22T14:55:16.846Z,20.32
2022-10-22T14:57:47.353Z,20.28
2022-10-22T15:00:17.680Z,20.24
2022-10-22T15:02:46.046Z,20.19
2022-10-22T15:05:13.993Z,20.15
2022-10-22T15:07:41.793Z,20.11
2022-10-22T15:10:10.732Z,20.07
2022-10-22T15:12:38.298Z,20.03
2022-10-22T15:15:08.600Z,19.99
2022-10-22T15:17:37.201Z,19.97
2022-10-22T15:20:06.295Z,19.92
2022-10-22T15:22:35.943Z,19.87
2022-10-22T15:25:04.662Z,19.83
2022-10-22T15:27:32.142Z,19.77
2022-10-22T15:29:59.857Z,19.72
2022-10-22T15:32:29.681Z,19.68
2022-10-22T15:34:57.629Z,19.63
2022-10-22T15:37:25.139Z,19.58
2022-10-22T15:39:52.607Z,19.54
2022-10-22T15:42:20.239Z,19.50
2022-10-22T15:44:48.208Z,19.44
2022-10-22T15:47:15.821Z,19.41
2022-10-22T15:49:45.892Z,19.36
2022-10-22T15:52:13.385Z,19.31
2022-10-22T15:54:42.424Z,19.26
2022-10-22T15:57:10.720Z,19.20
2022-10-22T15:59:38.344Z,19.15
2022-10-22T16:02:07.281Z,19.08
2022-10-22T16:04:34.936Z,19.01
2022-10-22T16:07:03.705Z,18.94
2022-10-22T16:09:31.949Z,18.87
2022-10-22T16:11:59.429Z,18.80
2022-10-22T16:14:28.684Z,18.73
2022-10-22T16:16:57.051Z,18.65
2022-10-22T16:19:25.435Z,18.58
2022-10-22T16:21:56.153Z,18.52
2022-10-22T16:24:25.147Z,18.47
2022-10-22T16:26:53.206Z,18.41
2022-10-22T16:29:21.037Z,18.33
2022-10-22T16:31:48.644Z,18.28
2022-10-22T16:34:16.934Z,18.23
2022-10-22T16:36:45.068Z,18.18
2022-10-22T16:39:12.598Z,18.11
2022-10-22T16:41:41.358Z,18.02
2022-10-22T16:44:10.730Z,17.95
2022-10-22T16:46:38.842Z,17.88
2022-10-22T16:49:07.514Z,17.80
2022-10-22T16:51:35.549Z,17.75
2022-10-22T16:54:05.539Z,17.69
2022-10-22T16:56:36.602Z,17.63
2022-10-22T16:59:05.419Z,17.59
2022-10-22T17:01:36.735Z,17.54
2022-10-22T17:04:07.312Z,17.50
2022-10-22T17:06:35.155Z,17.43
2022-10-22T17:09:03.553Z,17.36
2022-10-22T17:11:36.312Z,17.33
2022-10-22T17:14:07.798Z,17.29
2022-10-22T17:16:35.356Z,17.25
2022-10-22T17:19:04.987Z,17.21
2022-10-22T17:21:33.900Z,17.15
2022-10-22T17:24:01.673Z,17.12
2022-10-22T17:26:30.386Z,17.08
2022-10-22T17:28:58.376Z,17.01
2022-10-22T17:31:29.992Z,16.95
2022-10-22T17:33:59.840Z,16.90
2022-10-22T17:36:31.806Z,16.85
2022-10-22T17:39:06.525Z,16.81
2022-10-22T17:41:35.616Z,16.76
2022-10-22T17:44:05.749Z,16.72
2022-10-22T17:46:34.665Z,16.70
2022-10-22T17:49:06.911Z,16.68
2022-10-22T17:51:34.682Z,16.65
2022-10-22T17:54:03.554Z,16.62
2022-10-22T17:56:33.688Z,16.59
2022-10-22T17:59:01.253Z,16.57
2022-10-22T18:01:30.838Z,16.54
2022-10-22T18:04:02.612Z,16.53
2022-10-22T18:06:30.442Z,16.52
2022-10-22T18:08:58.307Z,16.47
2022-10-22T18:11:28.303Z,16.45
2022-10-22T18:13:58.380Z,16.45
2022-10-22T18:16:26.889Z,16.42
2022-10-22T18:18:56.389Z,16.41
2022-10-22T18:21:29.675Z,16.40
2022-10-22T18:24:00.220Z,16.39
2022-10-22T18:26:27.904Z,16.36
2022-10-22T18:28:55.714Z,16.34
2022-10-22T18:31:25.228Z,16.34
2022-10-22T18:36:24.055Z,16.32
2022-10-22T18:38:55.127Z,16.29
2022-10-22T18:41:23.408Z,16.28
2022-10-22T18:43:51.492Z,16.27
2022-10-22T18:46:22.150Z,16.26
2022-10-22T18:48:49.945Z,16.27
2022-10-22T18:51:17.676Z,16.26
2022-10-22T18:53:58.887Z,16.26
2022-10-22T18:56:34.193Z,16.20
2022-10-22T18:59:02.148Z,16.18
2022-10-22T19:01:30.479Z,16.18
2022-10-22T19:03:58.348Z,16.18
2022-10-22T19:06:30.502Z,16.17
2022-10-22T19:09:00.222Z,16.17
2022-10-22T19:11:28.162Z,16.17
2022-10-22T19:13:57.682Z,16.17
2022-10-22T19:16:28.748Z,16.15
2022-10-22T19:19:04.038Z,16.14
2022-10-22T19:21:32.226Z,16.13
2022-10-22T19:24:01.236Z,16.11
2022-10-22T19:26:30.568Z,16.12
2022-10-22T19:29:00.921Z,16.10
2022-10-22T19:31:31.692Z,16.10
2022-10-22T19:34:01.017Z,16.10
2022-10-22T19:36:30.241Z,16.08
2022-10-22T19:39:04.154Z,16.07
2022-10-22T19:41:34.068Z,16.06
2022-10-22T19:44:03.714Z,16.05
2022-10-22T19:46:33.613Z,16.05
2022-10-22T19:49:03.028Z,16.03
2022-10-22T19:51:33.507Z,16.03
2022-10-22T19:54:03.191Z,16.01
2022-10-22T19:56:32.065Z,15.99
2022-10-22T19:59:00.164Z,15.97
2022-10-22T20:01:31.952Z,15.96
2022-10-22T20:04:01.482Z,15.96
2022-10-22T20:06:29.826Z,15.93
2022-10-22T20:08:58.421Z,15.91
2022-10-22T20:11:29.622Z,15.88
2022-10-22T20:13:59.099Z,15.87
2022-10-22T20:16:31.574Z,15.84
2022-10-22T20:19:03.595Z,15.82
2022-10-22T20:21:31.777Z,15.80
2022-10-22T20:24:00.161Z,15.77
2022-10-22T20:26:29.150Z,15.74
2022-10-22T20:28:57.323Z,15.72
2022-10-22T20:31:27.101Z,15.70
2022-10-22T20:33:57.235Z,15.68
2022-10-22T20:36:25.726Z,15.67
2022-10-22T20:38:53.384Z,15.65
2022-10-22T20:41:23.149Z,15.63
2022-10-22T20:43:52.837Z,15.61
2022-10-22T20:46:23.074Z,15.59
2022-10-22T20:48:52.525Z,15.57
2022-10-22T20:51:21.950Z,15.56
2022-10-22T20:53:50.218Z,15.56
2022-10-22T20:56:18.747Z,15.54
2022-10-22T20:58:48.496Z,15.54
2022-10-22T21:01:21.507Z,15.54
2022-10-22T21:03:50.786Z,15.53
2022-10-22T21:06:20.871Z,15.53
2022-10-22T21:08:49.799Z,15.53
2022-10-22T21:11:17.462Z,15.54
2022-10-22T21:13:45.458Z,15.52
2022-10-22T21:16:14.512Z,15.54
2022-10-22T21:18:42.008Z,15.56
2022-10-22T21:21:10.561Z,15.57
2022-10-22T21:23:38.074Z,15.55
2022-10-22T21:26:07.628Z,15.56
2022-10-22T21:28:36.054Z,15.56
2022-10-22T21:31:04.792Z,15.58
2022-10-22T21:33:32.645Z,15.59
2022-10-22T21:36:00.281Z,15.59
2022-10-22T21:38:27.842Z,15.60
2022-10-22T21:40:56.639Z,15.59
2022-10-22T21:43:25.400Z,15.60
2022-10-22T21:45:52.869Z,15.61
2022-10-22T21:48:20.346Z,15.62
2022-10-22T21:50:49.792Z,15.61
2022-10-22T21:53:17.198Z,15.62
2022-10-22T21:55:44.635Z,15.63
2022-10-22T21:58:12.060Z,15.62
2022-10-22T22:00:40.877Z,15.61
2022-10-22T22:03:08.456Z,15.61
2022-10-22T22:05:36.145Z,15.62
2022-10-22T22:08:03.684Z,15.62
2022-10-22T22:10:31.146Z,15.62
2022-10-22T22:12:58.746Z,15.62
2022-10-22T22:15:26.212Z,15.61
2022-10-22T22:17:54.994Z,15.61
2022-10-22T22:20:22.469Z,15.60
2022-10-22T22:22:50.044Z,15.60
2022-10-22T22:25:17.688Z,15.60
2022-10-22T22:27:45.291Z,15.59
2022-10-22T22:30:13.265Z,15.60
2022-10-22T22:32:42.408Z,15.60
2022-10-22T22:35:11.759Z,15.59
2022-10-22T22:37:39.360Z,15.57
2022-10-22T22:40:08.090Z,15.56
2022-10-22T22:42:35.577Z,15.56
2022-10-22T22:45:03.006Z,15.56
2022-10-22T22:47:30.860Z,15.56
2022-10-22T22:49:58.321Z,15.54
2022-10-22T22:52:27.066Z,15.53
2022-10-22T22:54:54.563Z,15.51
2022-10-22T22:57:21.997Z,15.48
2022-10-22T22:59:51.172Z,15.46
2022-10-22T23:02:18.625Z,15.42
2022-10-22T23:04:46.570Z,15.40
2022-10-22T23:07:14.071Z,15.38
2022-10-22T23:09:42.950Z,15.35
2022-10-22T23:12:10.554Z,15.34
2022-10-22T23:14:37.985Z,15.32
2022-10-22T23:17:05.393Z,15.30
2022-10-22T23:19:32.891Z,15.28
2022-10-22T23:22:00.875Z,15.26
2022-10-22T23:24:30.310Z,15.25
2022-10-22T23:27:02.790Z,15.22
2022-10-22T23:29:32.353Z,15.20
2022-10-22T23:32:02.397Z,15.18
2022-10-22T23:34:31.892Z,15.16
2022-10-22T23:37:00.467Z,15.14
2022-10-22T23:39:29.511Z,15.12
2022-10-22T23:41:57.138Z,15.10
2022-10-22T23:44:26.609Z,15.07
2022-10-22T23:46:55.137Z,15.05
2022-10-22T23:49:22.600Z,15.03
2022-10-22T23:51:49.991Z,15.00
2022-10-22T23:54:17.793Z,14.98
2022-10-22T23:56:45.383Z,14.95
